Aeroporto :
LOGIN :

Iscrizione | Disclaimer

   EN    FR    IT 

 










Sommario :    VFR   VFR Marginale   IFR   IFR Intensivo   IFR Molto Intensivo
Visibilità : 
Base nubi : 
>= 8 km
>= 3000ft
5 / 8 km
1000 / 3000 ft
1500m / 5 km
500 / 1000 ft
800 / 1500m
200 / 500 ft
< 800m
< 200 ft
Simboli :   Temporali  Nebbia  Neve Forte  Precipitazioni Forti  Vento > 20 kt
SIGMETs :   Varie  Temporali  Ghiacco  Turbolenza  Onda orograficha  Ceneri Vulcaniche







- Altitudine del aeroporto : 1989 ft
- Codice IATA : KLV


LKKV - Karlovy Vary

ULTIMO METAR :
  • 141730Z VRB02KT 0100 R29/0350N FG VV001 03/03 Q1029

METARs OBSOLETI :
  • 141700Z VRB02KT 0100 R29/0325N FG VV001 03/03 Q1029
  • 141630Z VRB02KT 0100 R29/0350N FG VV001 03/03 Q1029
  • 141600Z VRB02KT 0100 R29/0400N FG VV001 03/03 Q1029
  • 141530Z 35003KT 0100 R29/0350N FG OVC002 03/03 Q1029
  • 141500Z VRB02KT 0200 R29/0450 FG BKN002 04/03 Q1029

TAF TAF LKKV
Valido dal 14 a 18 ore il 16 a 00 ore UTC


141700Z 1418/1600 VRB02KT 0100 FG VV001
TEMPO 1418/1423 0500 FG OVC002
PROB30
TEMPO 1503/1507 0100 FZFG
BECMG 1508/1510 2000 BR SCT002 OVC004
BECMG 1510/1512 6000 BKN011
TEMPO 1512/1517 9999 SCT020
BECMG 1517/1519 2000 BR SCT002 BKN006
BECMG 1520/1522 0550 FG VV001
PROB40
TEMPO 1522/1600 0250 FZFG
Nessun NOTAM noto per questo aeroporto.



MetMap, La meteo Aeronautica in un colpo d'occhio ! - Copyright ORBIFLY Dicembre 2007 - Disclaimer

ORBIFLY MET'MAP TEAM :

Programmazione e sviluppo : Alexandra Zaïnal
Concezione e sviluppo : Baudouin d'Aumeries
Co-Programmazione e sviluppo : Marc-Olivier Méhu
Supporto tecnico e logistico : Manuel Goepfert
Aiuto per la traduzione : Arnaldo La Scala

Contatto : metmap@orbifly.com




FONTI E CREDITI :

   NOAA